Time;durP1;ratioP1;P1;durP2;ratioP2;P2;SDS_P1;SDS_P2;PMS_P1;PMS_P2;Temp;Humidity;BMP_temperature;BMP_pressure;BME280_temperature;BME280_humidity;BME280_pressure;Samples;Min_cycle;Max_cycle;Signal;HPM_P1;HPM_P2
2021/01/04 00:00:05;;;;;;;32.30;13.65;;;;;;;5.45;100.00;101753.67;1840673;78;20882;-60
2021/01/04 00:03:05;;;;;;;31.15;13.65;;;;;;;5.43;100.00;101751.03;1832982;78;21080;-61
2021/01/04 00:05:55;;;;;;;28.98;12.95;;;;;;;5.41;100.00;101751.44;1803400;78;20997;-60
2021/01/04 00:08:31;;;;;;;27.60;13.28;;;;;;;5.43;100.00;101741.72;1841012;78;21859;-61
2021/01/04 00:11:25;;;;;;;30.60;12.98;;;;;;;5.43;100.00;101751.45;1841058;78;22224;-60
2021/01/04 00:14:04;;;;;;;27.87;12.68;;;;;;;5.41;100.00;101753.23;1840972;78;20926;-60
2021/01/04 00:17:00;;;;;;;30.12;13.03;;;;;;;5.39;100.00;101746.56;1840992;78;21013;-58
2021/01/04 00:19:49;;;;;;;33.42;13.98;;;;;;;5.39;100.00;101751.00;1841144;78;21028;-60
2021/01/04 00:22:46;;;;;;;32.93;14.75;;;;;;;5.41;100.00;101740.80;1841111;78;22151;-60
2021/01/04 00:25:30;;;;;;;23.18;12.50;;;;;;;5.40;100.00;101744.34;1840964;78;20969;-60
2021/01/04 00:28:07;;;;;;;30.32;13.72;;;;;;;5.39;100.00;101741.23;1831118;78;21057;-59
2021/01/04 00:30:45;;;;;;;27.32;12.68;;;;;;;5.35;100.00;101743.45;1841066;78;20946;-62
2021/01/04 00:33:24;;;;;;;29.52;13.68;;;;;;;5.34;100.00;101738.14;1810281;78;21104;-59
2021/01/04 00:35:57;;;;;;;32.80;13.15;;;;;;;5.32;100.00;101727.48;1840999;78;21365;-61
2021/01/04 00:39:02;;;;;;;30.40;14.18;;;;;;;5.35;100.00;101738.13;1829489;78;21531;-59
2021/01/04 00:41:58;;;;;;;31.05;14.60;;;;;;;5.35;100.00;101730.16;1828082;78;20928;-60
2021/01/04 00:44:44;;;;;;;32.55;14.15;;;;;;;5.36;100.00;101736.38;1828149;78;20983;-60
2021/01/04 00:47:26;;;;;;;28.40;13.75;;;;;;;5.34;100.00;101735.48;1830451;77;21003;-60
2021/01/04 00:49:59;;;;;;;30.77;13.78;;;;;;;5.34;100.00;101732.83;1831262;77;21293;-60
2021/01/04 00:52:44;;;;;;;27.20;13.45;;;;;;;5.33;100.00;101745.22;1831246;78;21073;-60
2021/01/04 00:55:38;;;;;;;32.70;13.10;;;;;;;5.33;100.00;101737.24;1831401;78;21007;-59
2021/01/04 00:58:33;;;;;;;33.42;14.05;;;;;;;5.35;100.00;101740.79;1830767;77;21126;-61
2021/01/04 01:01:37;;;;;;;27.15;11.38;;;;;;;5.35;100.00;101739.46;1830854;77;21043;-59
2021/01/04 01:04:23;;;;;;;33.85;14.10;;;;;;;5.33;100.00;101729.27;1830657;78;21431;-60
2021/01/04 01:07:05;;;;;;;27.90;13.05;;;;;;;5.34;100.00;101739.02;1830686;78;21074;-60
2021/01/04 01:09:35;;;;;;;33.63;14.03;;;;;;;5.35;100.00;101735.47;1830689;78;20980;-60
2021/01/04 01:12:23;;;;;;;26.17;13.40;;;;;;;5.37;100.00;101730.17;1817046;78;21530;-60
2021/01/04 01:15:17;;;;;;;31.60;14.47;;;;;;;5.38;100.00;101743.45;1830797;78;21131;-60
2021/01/04 01:18:11;;;;;;;28.38;13.75;;;;;;;5.37;100.00;101733.70;1830633;78;21200;-59
2021/01/04 01:20:42;;;;;;;28.80;13.48;;;;;;;5.40;100.00;101731.05;1830738;77;21432;-59
2021/01/04 01:23:12;;;;;;;31.70;14.18;;;;;;;5.41;100.00;101733.28;1830603;78;20984;-59
2021/01/04 01:25:45;;;;;;;31.10;13.55;;;;;;;5.39;100.00;101722.63;1830673;78;21094;-60
2021/01/04 01:28:38;;;;;;;29.90;13.72;;;;;;;5.41;100.00;101728.83;1830623;78;21110;-59
2021/01/04 01:31:29;;;;;;;33.35;15.00;;;;;;;5.41;100.00;101724.84;1830648;78;21424;-60
2021/01/04 01:34:32;;;;;;;37.70;16.48;;;;;;;5.43;100.00;101724.43;1830731;78;21197;-59
2021/01/04 01:37:56;;;;;;;31.07;14.55;;;;;;;5.45;100.00;101723.98;1817913;78;20881;-60
2021/01/04 01:40:58;;;;;;;30.62;13.05;;;;;;;5.46;100.00;101726.19;1833261;77;20964;-60
2021/01/04 01:43:52;;;;;;;30.82;13.90;;;;;;;5.44;100.00;101730.20;1833264;78;21141;-60
2021/01/04 01:46:34;;;;;;;37.13;14.13;;;;;;;5.45;100.00;101726.65;1832614;78;22267;-60
2021/01/04 01:49:19;;;;;;;31.12;14.18;;;;;;;5.45;100.00;101715.11;1830275;78;21120;-60
2021/01/04 01:52:16;;;;;;;30.75;13.22;;;;;;;5.45;100.00;101716.01;1830664;78;21054;-60
2021/01/04 01:55:05;;;;;;;26.43;13.50;;;;;;;5.42;100.00;101718.66;1830377;78;20992;-60
2021/01/04 01:58:07;;;;;;;26.70;13.40;;;;;;;5.43;100.00;101715.13;1760513;77;21090;-60
2021/01/04 02:01:10;;;;;;;32.93;14.73;;;;;;;5.45;100.00;101714.67;1829780;77;21374;-60
2021/01/04 02:04:07;;;;;;;30.27;14.43;;;;;;;5.47;100.00;101706.68;1830293;77;20936;-60
2021/01/04 02:07:05;;;;;;;29.87;14.00;;;;;;;5.48;100.00;101711.58;1830246;77;21126;-60
2021/01/04 02:09:40;;;;;;;27.65;13.58;;;;;;;5.49;100.00;101713.34;1830312;77;20999;-60
2021/01/04 02:12:28;;;;;;;33.05;13.95;;;;;;;5.49;100.00;101716.01;1830357;77;20960;-59
2021/01/04 02:15:22;;;;;;;31.73;13.05;;;;;;;5.50;100.00;101704.02;1830007;77;21479;-60
2021/01/04 02:18:08;;;;;;;30.82;13.72;;;;;;;5.47;100.00;101708.01;1830370;78;20916;-60
2021/01/04 02:21:02;;;;;;;29.07;13.60;;;;;;;5.47;100.00;101704.48;1830459;78;21121;-61
2021/01/04 02:23:41;;;;;;;32.73;14.18;;;;;;;5.48;100.00;101692.95;1830337;78;21011;-60
2021/01/04 02:26:23;;;;;;;28.07;13.85;;;;;;;5.47;100.00;101699.16;1807422;77;21091;-60
2021/01/04 02:29:07;;;;;;;30.45;13.25;;;;;;;5.45;100.00;101695.16;1830408;78;21255;-60
2021/01/04 02:31:37;;;;;;;31.10;14.98;;;;;;;5.41;100.00;101698.24;1814854;78;21110;-59
2021/01/04 02:34:07;;;;;;;32.15;13.40;;;;;;;5.42;100.00;101702.70;1830312;78;21098;-59
2021/01/04 02:36:38;;;;;;;33.98;14.13;;;;;;;5.47;100.00;101699.16;1830605;78;21126;-60
2021/01/04 02:39:10;;;;;;;29.30;13.53;;;;;;;5.48;100.00;101692.49;1832015;78;21000;-60
2021/01/04 02:42:13;;;;;;;29.00;13.18;;;;;;;5.51;100.00;101694.28;1832117;78;21180;-59
2021/01/04 02:44:42;;;;;;;25.08;12.37;;;;;;;5.49;100.00;101681.42;1831983;78;20977;-59
2021/01/04 02:47:31;;;;;;;27.58;12.13;;;;;;;5.47;100.00;101688.06;1832048;77;21193;-59
2021/01/04 02:50:25;;;;;;;34.33;12.78;;;;;;;5.43;100.00;101668.57;1832109;78;20929;-59
2021/01/04 02:53:04;;;;;;;25.85;12.33;;;;;;;5.42;100.00;101673.45;1751782;81;21144;-59
2021/01/04 02:56:20;;;;;;;24.73;11.67;;;;;;;5.49;100.00;101677.44;1873166;76;22725;-61
2021/01/04 02:59:31;;;;;;;31.00;13.20;;;;;;;5.41;100.00;101666.32;1840977;78;20946;-60
2021/01/04 03:02:22;;;;;;;30.40;11.93;;;;;;;5.39;100.00;101656.13;1840998;78;21316;-60
2021/01/04 03:04:50;;;;;;;27.87;13.05;;;;;;;5.37;100.00;101662.35;1841053;78;20937;-61
2021/01/04 03:07:30;;;;;;;22.05;11.95;;;;;;;5.36;100.00;101664.11;1841013;78;20914;-60
2021/01/04 03:09:59;;;;;;;25.23;11.28;;;;;;;5.35;100.00;101658.34;1841011;77;21056;-61
2021/01/04 03:12:31;;;;;;;25.50;11.30;;;;;;;5.35;100.00;101657.02;1841024;78;20918;-60
2021/01/04 03:15:19;;;;;;;24.87;11.28;;;;;;;5.34;100.00;101655.24;1840967;78;21347;-59
2021/01/04 03:18:19;;;;;;;25.70;11.55;;;;;;;5.35;100.00;101657.02;1834761;78;20949;-60
2021/01/04 03:20:47;;;;;;;25.88;12.43;;;;;;;5.37;100.00;101657.03;1841026;78;20930;-60
2021/01/04 03:23:15;;;;;;;25.08;11.68;;;;;;;5.33;100.00;101651.27;1840997;78;21108;-60
2021/01/04 03:25:51;;;;;;;24.45;11.40;;;;;;;5.32;100.00;101645.05;1840917;78;21104;-60
2021/01/04 03:28:25;;;;;;;29.27;11.85;;;;;;;5.32;100.00;101649.04;1840971;78;21188;-61
2021/01/04 03:30:53;;;;;;;26.62;11.85;;;;;;;5.35;100.00;101663.66;1840986;78;21028;-60
2021/01/04 03:33:21;;;;;;;28.90;11.90;;;;;;;5.35;100.00;101650.37;1840924;78;21199;-60
2021/01/04 03:35:49;;;;;;;26.57;11.60;;;;;;;5.37;100.00;101650.38;1840982;78;21009;-60
2021/01/04 03:38:17;;;;;;;26.30;12.00;;;;;;;5.35;100.00;101650.37;1830212;78;21456;-60
2021/01/04 03:40:46;;;;;;;29.25;11.53;;;;;;;5.34;100.00;101656.58;1828270;78;22240;-60
2021/01/04 03:43:14;;;;;;;22.70;11.78;;;;;;;5.33;100.00;101660.13;1828007;78;21101;-59
2021/01/04 03:45:41;;;;;;;23.70;10.95;;;;;;;5.34;100.00;101664.55;1828125;78;21051;-60
2021/01/04 03:48:10;;;;;;;23.25;11.63;;;;;;;5.35;100.00;101653.48;1828078;78;21050;-60
2021/01/04 03:50:37;;;;;;;22.85;11.20;;;;;;;5.34;100.00;101666.34;1828148;78;21055;-60
2021/01/04 03:53:05;;;;;;;24.95;10.53;;;;;;;5.32;100.00;101662.33;1828103;78;21761;-61
2021/01/04 03:55:33;;;;;;;25.20;12.15;;;;;;;5.31;100.00;101657.91;1827931;77;21133;-60
2021/01/04 03:58:01;;;;;;;30.52;12.18;;;;;;;5.26;100.00;101657.89;1828127;78;21115;-61
2021/01/04 04:00:29;;;;;;;22.75;11.22;;;;;;;5.25;100.00;101660.10;1828015;78;20912;-60
2021/01/04 04:02:57;;;;;;;25.15;13.00;;;;;;;5.24;100.00;101657.00;1828139;78;21031;-60
2021/01/04 04:05:24;;;;;;;26.77;11.68;;;;;;;5.26;100.00;101668.98;1827803;78;21687;-59
2021/01/04 04:07:52;;;;;;;28.27;11.97;;;;;;;5.26;100.00;101663.66;1827467;77;20979;-60
2021/01/04 04:10:20;;;;;;;27.32;11.25;;;;;;;5.25;100.00;101676.52;1827457;78;20885;-61
2021/01/04 04:12:49;;;;;;;27.17;12.10;;;;;;;5.25;100.00;101674.73;1827518;78;21043;-58
2021/01/04 04:15:18;;;;;;;23.67;11.48;;;;;;;5.23;100.00;101668.98;1827462;78;21043;-60
2021/01/04 04:17:45;;;;;;;26.23;12.03;;;;;;;5.24;100.00;101680.06;1827605;78;21462;-60
2021/01/04 04:20:19;;;;;;;27.70;12.78;;;;;;;5.22;100.00;101683.16;1827341;78;21109;-60
2021/01/04 04:22:49;;;;;;;31.07;11.78;;;;;;;5.18;100.00;101665.40;1827534;78;20936;-60
2021/01/04 04:25:18;;;;;;;27.85;11.43;;;;;;;5.15;100.00;101673.81;1827477;78;21071;-60
2021/01/04 04:27:45;;;;;;;24.95;11.35;;;;;;;5.16;100.00;101671.60;1827521;78;21090;-59
2021/01/04 04:30:16;;;;;;;25.72;12.75;;;;;;;5.18;100.00;101676.03;1827510;78;21192;-61
2021/01/04 04:32:44;;;;;;;33.60;13.22;;;;;;;5.18;100.00;101684.02;1827384;78;21007;-60
2021/01/04 04:35:12;;;;;;;31.50;12.18;;;;;;;5.20;100.00;101692.91;1827484;78;21019;-59
2021/01/04 04:37:41;;;;;;;30.43;12.40;;;;;;;5.20;100.00;101687.13;1834900;78;21037;-60
2021/01/04 04:40:17;;;;;;;29.95;12.33;;;;;;;5.21;100.00;101694.69;1840426;78;21060;-60
2021/01/04 04:42:46;;;;;;;26.35;12.55;;;;;;;5.22;100.00;101699.12;1840269;77;21309;-60
2021/01/04 04:45:17;;;;;;;27.15;12.80;;;;;;;5.23;100.00;101694.24;1840343;78;21115;-60
2021/01/04 04:48:11;;;;;;;26.20;12.10;;;;;;;5.22;100.00;101697.33;1840264;78;21129;-60
2021/01/04 04:51:03;;;;;;;24.25;11.88;;;;;;;5.22;100.00;101693.80;1840332;78;21156;-60
2021/01/04 04:53:54;;;;;;;24.43;11.93;;;;;;;5.20;100.00;101700.89;1840446;78;21080;-59
2021/01/04 04:57:04;;;;;;;28.00;12.88;;;;;;;5.19;100.00;101685.78;1840295;78;21409;-59
2021/01/04 04:59:49;;;;;;;28.83;13.35;;;;;;;5.16;100.00;101683.56;1840272;78;20965;-60
2021/01/04 05:02:26;;;;;;;37.03;12.70;;;;;;;5.13;100.00;101666.28;1840548;78;20934;-60
2021/01/04 05:05:17;;;;;;;26.97;13.10;;;;;;;5.14;100.00;101665.40;1840245;78;21104;-60
2021/01/04 05:08:02;;;;;;;33.20;13.13;;;;;;;5.15;100.00;101674.27;1840412;78;21088;-60
2021/01/04 05:10:35;;;;;;;32.28;13.65;;;;;;;5.18;100.00;101660.08;1837355;78;22227;-60
2021/01/04 05:13:25;;;;;;;30.00;12.55;;;;;;;5.21;100.00;101664.11;1840248;77;21189;-60
2021/01/04 05:16:14;;;;;;;30.12;13.20;;;;;;;5.21;100.00;101676.94;1840340;78;20990;-59
2021/01/04 05:19:39;;;;;;;26.90;12.58;;;;;;;5.21;100.00;101685.38;1840169;78;21144;-60
2021/01/04 05:22:41;;;;;;;34.55;14.38;;;;;;;5.22;100.00;101681.83;1840428;77;20903;-61
2021/01/04 05:25:40;;;;;;;27.40;12.43;;;;;;;5.22;100.00;101672.52;1840285;78;20890;-60
2021/01/04 05:28:22;;;;;;;29.92;13.48;;;;;;;5.19;100.00;101677.80;1840287;78;21000;-60
2021/01/04 05:31:23;;;;;;;36.50;13.20;;;;;;;5.15;100.00;101676.48;1840364;78;21071;-59
2021/01/04 05:34:40;;;;;;;28.98;11.90;;;;;;;5.15;100.00;101683.58;1840293;78;20942;-59
2021/01/04 05:37:30;;;;;;;23.45;12.07;;;;;;;5.18;100.00;101684.02;1744254;81;21078;-60
2021/01/04 05:40:15;;;;;;;28.50;12.30;;;;;;;5.16;100.00;101679.58;1763836;81;21194;-60
2021/01/04 05:43:10;;;;;;;29.27;12.37;;;;;;;5.12;100.00;101677.80;1800320;79;21115;-59
2021/01/04 05:46:01;;;;;;;32.45;12.80;;;;;;;5.12;100.00;101659.19;1807422;79;20985;-61
2021/01/04 05:48:44;;;;;;;31.73;12.65;;;;;;;5.12;100.00;101656.53;1802514;79;21066;-60
2021/01/04 05:51:43;;;;;;;29.30;12.07;;;;;;;5.12;100.00;101659.19;1807412;79;22075;-60
2021/01/04 05:54:11;;;;;;;24.07;11.63;;;;;;;5.15;100.00;101668.95;1807270;79;21374;-60
2021/01/04 05:56:39;;;;;;;23.42;11.65;;;;;;;5.15;100.00;101671.16;1807199;79;20934;-61
2021/01/04 05:59:14;;;;;;;23.22;11.25;;;;;;;5.13;100.00;101676.05;1807249;79;20937;-60
2021/01/04 06:01:44;;;;;;;27.70;11.55;;;;;;;5.11;100.00;101675.16;1807310;79;21182;-60
2021/01/04 06:04:25;;;;;;;24.85;12.15;;;;;;;5.11;100.00;101675.16;1807226;79;21187;-60
2021/01/04 06:06:59;;;;;;;29.02;11.53;;;;;;;5.11;100.00;101676.48;1803538;79;21437;-61
2021/01/04 06:09:27;;;;;;;25.43;11.83;;;;;;;5.11;100.00;101673.38;1807072;79;21017;-59
2021/01/04 06:12:08;;;;;;;29.48;11.85;;;;;;;5.10;100.00;101682.69;1807261;79;21097;-60
2021/01/04 06:14:37;;;;;;;21.57;10.90;;;;;;;5.09;100.00;101679.12;1807313;79;21473;-60
2021/01/04 06:17:29;;;;;;;26.37;11.57;;;;;;;5.09;100.00;101673.81;1807313;79;21306;-60
2021/01/04 06:20:01;;;;;;;33.75;16.45;;;;;;;5.10;100.00;101674.72;1807367;79;21303;-60
2021/01/04 06:22:30;;;;;;;27.42;12.50;;;;;;;5.11;100.00;101659.21;1807188;79;21055;-59
2021/01/04 06:25:01;;;;;;;28.83;11.18;;;;;;;5.09;100.00;101661.84;1807284;79;20934;-60
2021/01/04 06:27:39;;;;;;;31.52;12.18;;;;;;;5.09;100.00;101661.84;1807223;79;20938;-61
2021/01/04 06:30:31;;;;;;;22.20;10.75;;;;;;;5.07;100.00;101670.27;1807298;79;21044;-60
2021/01/04 06:33:14;;;;;;;30.45;10.98;;;;;;;5.07;100.00;101666.28;1807047;79;21348;-60
2021/01/04 06:35:42;;;;;;;22.32;11.08;;;;;;;5.09;100.00;101675.14;1807110;79;21152;-61
2021/01/04 06:38:29;;;;;;;24.18;10.85;;;;;;;5.08;100.00;101676.02;1820288;78;20988;-59
2021/01/04 06:40:56;;;;;;;24.50;10.10;;;;;;;5.09;100.00;101678.26;1823866;77;21196;-54
2021/01/04 06:43:32;;;;;;;27.22;12.00;;;;;;;5.06;100.00;101677.80;1824123;77;21143;-53
2021/01/04 06:46:17;;;;;;;23.40;12.07;;;;;;;5.06;100.00;101677.80;1824178;78;21408;-53
2021/01/04 06:48:59;;;;;;;26.90;12.03;;;;;;;5.09;100.00;101684.45;1824067;78;21130;-52
2021/01/04 06:52:06;;;;;;;27.75;11.43;;;;;;;5.10;100.00;101692.86;1824213;78;20956;-53
2021/01/04 06:55:01;;;;;;;29.98;13.85;;;;;;;5.12;100.00;101691.55;1824084;78;21150;-52
2021/01/04 06:57:35;;;;;;;;;;;;;;;5.15;100.00;101683.12;1833055;78;21051;-53
2021/01/04 07:00:27;;;;;;;24.75;11.40;;;;;;;5.15;100.00;101679.13;1830221;78;21203;-51
2021/01/04 07:03:43;;;;;;;28.07;11.18;;;;;;;5.12;100.00;101676.93;1830168;77;20995;-53
2021/01/04 07:06:47;;;;;;;26.52;11.88;;;;;;;5.12;100.00;101678.27;1830472;78;20885;-52
2021/01/04 07:09:29;;;;;;;24.37;10.90;;;;;;;5.11;100.00;101684.00;1829719;77;21514;-53
2021/01/04 07:12:13;;;;;;;33.08;12.13;;;;;;;5.14;100.00;101691.11;1804820;78;21067;-54
2021/01/04 07:15:18;;;;;;;22.30;9.70;;;;;;;5.15;100.00;101695.09;1830304;77;21002;-53
2021/01/04 07:18:18;;;;;;;19.48;10.68;;;;;;;5.18;100.00;101689.33;1829856;77;21138;-53
2021/01/04 07:21:18;;;;;;;32.78;11.38;;;;;;;5.20;100.00;101703.55;1830363;77;20999;-54
2021/01/04 07:24:09;;;;;;;30.05;11.57;;;;;;;5.18;100.00;101703.95;1830300;78;21534;-53
2021/01/04 07:27:11;;;;;;;23.12;10.78;;;;;;;5.16;100.00;101695.53;1830174;78;21062;-52
2021/01/04 07:30:17;;;;;;;23.73;11.43;;;;;;;5.15;100.00;101685.78;1830271;78;21371;-54
2021/01/04 07:32:52;;;;;;;;;;;;;;;5.18;100.00;101694.64;1833038;78;21510;-52
2021/01/04 07:35:24;;;;;;;29.15;11.45;;;;;;;5.20;100.00;101686.27;1830169;78;20214;-53
2021/01/04 07:38:12;;;;;;;24.00;11.35;;;;;;;5.21;100.00;101689.36;1830212;78;21038;-53
2021/01/04 07:41:18;;;;;;;26.62;11.93;;;;;;;5.19;100.00;101681.80;1829922;77;21074;-53
2021/01/04 07:44:04;;;;;;;24.50;11.43;;;;;;;5.18;100.00;101688.00;1830338;77;21543;-51
2021/01/04 07:47:10;;;;;;;28.57;13.18;;;;;;;5.19;100.00;101678.71;1830207;77;21152;-53
2021/01/04 07:50:17;;;;;;;37.53;15.35;;;;;;;5.21;100.00;101686.70;1823580;77;21059;-52
2021/01/04 07:52:51;;;;;;;;;;;;;;;5.20;100.00;101682.27;1832781;77;21558;-53
2021/01/04 07:55:45;;;;;;;33.02;14.15;;;;;;;5.25;100.00;101681.83;1828971;77;20218;-52
2021/01/04 07:59:01;;;;;;;37.30;14.83;;;;;;;5.26;100.00;101672.97;1824257;78;21188;-53
2021/01/04 08:01:51;;;;;;;39.48;15.68;;;;;;;5.26;100.00;101687.59;1824122;78;21118;-53
2021/01/04 08:04:50;;;;;;;36.30;14.68;;;;;;;5.26;100.00;101679.62;1824316;78;20904;-53
2021/01/04 08:07:42;;;;;;;35.55;14.83;;;;;;;5.29;100.00;101679.62;1824227;78;21039;-53
2021/01/04 08:10:49;;;;;;;35.15;16.50;;;;;;;5.29;100.00;101679.62;1824284;78;21116;-53
2021/01/04 08:13:59;;;;;;;30.32;14.25;;;;;;;5.34;100.00;101672.53;1824443;78;21250;-52
2021/01/04 08:16:31;;;;;;;33.65;15.05;;;;;;;5.33;100.00;101664.11;1795166;78;21173;-53
2021/01/04 08:19:03;;;;;;;34.78;14.35;;;;;;;5.37;100.00;101653.91;1824309;77;20940;-52
2021/01/04 08:22:04;;;;;;;34.95;15.05;;;;;;;5.39;100.00;101659.25;1824382;77;21455;-53
2021/01/04 08:24:45;;;;;;;36.08;15.88;;;;;;;5.43;100.00;101647.72;1824201;78;21110;-54
2021/01/04 08:27:36;;;;;;;29.40;14.43;;;;;;;5.45;100.00;101626.90;1824402;78;22268;-53
2021/01/04 08:30:29;;;;;;;33.88;16.42;;;;;;;5.48;100.00;101637.09;1824312;78;21389;-52
2021/01/04 08:33:08;;;;;;;43.20;21.40;;;;;;;5.50;100.00;101627.34;1824238;78;21122;-53
2021/01/04 08:35:40;;;;;;;36.30;16.37;;;;;;;5.54;100.00;101625.12;1831284;78;21128;-52
2021/01/04 08:38:31;;;;;;;37.13;14.00;;;;;;;5.57;100.00;101629.09;1830478;78;21177;-53
2021/01/04 08:41:23;;;;;;;35.35;15.38;;;;;;;5.56;100.00;101629.98;1827533;78;21342;-55
2021/01/04 08:43:54;;;;;;;39.27;15.08;;;;;;;5.56;100.00;101624.67;1827461;78;21047;-54
2021/01/04 08:46:30;;;;;;;36.77;14.95;;;;;;;5.57;100.00;101623.78;1827456;77;21184;-54
2021/01/04 08:49:15;;;;;;;34.92;14.58;;;;;;;5.58;100.00;101641.52;1827473;78;21031;-52
2021/01/04 08:51:43;;;;;;;;;;;;;;;5.55;100.00;101638.86;1830113;78;21086;-53
2021/01/04 08:54:16;;;;;;;37.63;14.68;;;;;;;5.53;100.00;101625.58;1827623;78;22063;-52
2021/01/04 08:56:48;;;;;;;40.43;16.62;;;;;;;5.53;100.00;101626.00;1827252;78;21157;-54
2021/01/04 08:59:19;;;;;;;32.78;16.17;;;;;;;5.56;100.00;101635.31;1827110;78;21582;-53
2021/01/04 09:01:54;;;;;;;48.13;16.02;;;;;;;5.58;100.00;101628.21;1827380;78;21043;-53
2021/01/04 09:04:35;;;;;;;37.80;14.98;;;;;;;5.57;100.00;101631.33;1827302;78;21190;-54
2021/01/04 09:07:16;;;;;;;32.73;14.58;;;;;;;5.62;100.00;101619.34;1827508;78;21482;-54
2021/01/04 09:09:52;;;;;;;33.23;14.40;;;;;;;5.64;100.00;101614.94;1827258;77;21137;-54
2021/01/04 09:12:39;;;;;;;36.45;15.68;;;;;;;5.67;100.00;101628.23;1827563;78;21480;-53
2021/01/04 09:15:24;;;;;;;34.38;13.93;;;;;;;5.68;100.00;101629.09;1827437;78;21055;-52
2021/01/04 09:18:03;;;;;;;32.70;14.15;;;;;;;5.66;100.00;101623.80;1827449;78;21126;-54
2021/01/04 09:20:49;;;;;;;33.25;13.85;;;;;;;5.68;100.00;101626.02;1827415;77;21180;-52
2021/01/04 09:23:25;;;;;;;37.38;14.95;;;;;;;5.70;100.00;101633.55;1827739;78;21712;-53
2021/01/04 09:26:03;;;;;;;36.00;13.85;;;;;;;5.66;100.00;101609.16;1827461;77;21027;-53
2021/01/04 09:28:42;;;;;;;38.60;14.70;;;;;;;5.66;100.00;101609.16;1827483;78;21039;-53
2021/01/04 09:31:13;;;;;;;37.10;14.70;;;;;;;5.67;100.00;101608.27;1827491;78;21046;-53
2021/01/04 09:33:47;;;;;;;32.30;14.20;;;;;;;5.67;100.00;101599.39;1827425;78;21367;-53
2021/01/04 09:36:16;;;;;;;38.28;13.25;;;;;;;5.69;100.00;101592.29;1827590;78;21209;-53
2021/01/04 09:38:45;;;;;;;40.95;15.15;;;;;;;5.73;100.00;101585.64;1805562;79;21544;-53
2021/01/04 09:41:13;;;;;;;32.00;14.90;;;;;;;5.73;100.00;101585.64;1776953;79;21125;-53
2021/01/04 09:43:41;;;;;;;35.33;14.65;;;;;;;5.76;100.00;101578.54;1805627;79;20910;-53
2021/01/04 09:46:22;;;;;;;28.83;13.40;;;;;;;5.79;100.00;101601.14;1805617;79;21418;-53
2021/01/04 09:49:07;;;;;;;30.50;15.23;;;;;;;5.81;100.00;101595.38;1805780;79;21203;-53
2021/01/04 09:51:47;;;;;;;39.08;15.13;;;;;;;5.85;100.00;101585.16;1776886;79;21139;-52
2021/01/04 09:54:22;;;;;;;28.85;14.00;;;;;;;5.86;100.00;101568.33;1805660;79;21128;-53
2021/01/04 09:56:50;;;;;;;34.18;14.03;;;;;;;5.88;100.00;101570.55;1805487;79;21044;-53
2021/01/04 09:59:23;;;;;;;30.68;15.00;;;;;;;5.88;100.00;101578.53;1805665;79;21376;-53
2021/01/04 10:01:55;;;;;;;27.15;12.85;;;;;;;5.90;100.00;101560.77;1805555;79;21104;-53
2021/01/04 10:04:37;;;;;;;34.60;15.15;;;;;;;5.88;100.00;101567.88;1805012;79;21172;-54
2021/01/04 10:07:07;;;;;;;31.00;14.65;;;;;;;5.90;100.00;101564.77;1805544;79;21120;-52
2021/01/04 10:09:39;;;;;;;29.95;14.90;;;;;;;5.93;100.00;101557.20;1776965;79;21540;-53
2021/01/04 10:12:07;;;;;;;31.40;14.45;;;;;;;5.93;100.00;101557.20;1805583;79;21454;-53
2021/01/04 10:14:35;;;;;;;34.20;13.95;;;;;;;5.95;100.00;101551.00;1805522;79;21148;-54
2021/01/04 10:17:03;;;;;;;34.58;13.62;;;;;;;5.94;100.00;101541.23;1805592;79;21108;-54
2021/01/04 10:19:36;;;;;;;31.80;13.80;;;;;;;5.94;100.00;101537.24;1805468;79;21045;-53
2021/01/04 10:22:13;;;;;;;31.50;13.28;;;;;;;5.94;100.00;101563.86;1805634;79;21106;-53
2021/01/04 10:24:58;;;;;;;27.40;14.20;;;;;;;5.87;100.00;101556.33;1805460;79;21344;-55
2021/01/04 10:27:27;;;;;;;36.10;15.40;;;;;;;5.87;100.00;101556.33;1805428;79;21092;-54
2021/01/04 10:29:57;;;;;;;38.42;15.10;;;;;;;5.82;100.00;101554.56;1801192;79;21089;-53
2021/01/04 10:32:35;;;;;;;34.00;14.58;;;;;;;5.83;100.00;101536.38;1805510;79;21151;-53
2021/01/04 10:35:04;;;;;;;39.03;14.85;;;;;;;5.84;100.00;101539.47;1805254;79;21258;-52
2021/01/04 10:37:46;;;;;;;38.60;16.12;;;;;;;5.83;100.00;101542.59;1816724;78;21418;-53
2021/01/04 10:40:17;;;;;;;32.67;14.98;;;;;;;5.81;100.00;101540.39;1827335;78;21134;-52
2021/01/04 10:42:46;;;;;;;33.23;14.60;;;;;;;5.79;100.00;101546.59;1827418;78;21146;-54
2021/01/04 10:45:20;;;;;;;37.08;15.93;;;;;;;5.79;100.00;101555.91;1809469;78;21559;-53
2021/01/04 10:47:58;;;;;;;35.52;15.28;;;;;;;5.76;100.00;101551.92;1827318;78;21030;-53
2021/01/04 10:50:38;;;;;;;43.48;16.50;;;;;;;5.73;100.00;101548.38;1827382;78;21780;-53
2021/01/04 10:53:10;;;;;;;37.53;16.40;;;;;;;5.73;100.00;101553.70;1827392;77;21193;-52
2021/01/04 10:55:52;;;;;;;36.33;15.48;;;;;;;5.73;100.00;101542.16;1827256;78;21051;-52
2021/01/04 10:58:29;;;;;;;35.92;14.90;;;;;;;5.76;100.00;101534.63;1827026;78;21067;-52
2021/01/04 11:01:09;;;;;;;41.75;15.90;;;;;;;5.72;100.00;101533.31;1809358;78;21165;-54
2021/01/04 11:03:57;;;;;;;32.93;14.78;;;;;;;5.72;100.00;101521.34;1827134;78;21352;-53
2021/01/04 11:06:31;;;;;;;41.20;16.23;;;;;;;5.71;100.00;101519.56;1827295;78;20968;-53
2021/01/04 11:08:58;;;;;;;40.12;16.27;;;;;;;5.72;100.00;101524.42;1827521;78;21166;-53
2021/01/04 11:11:38;;;;;;;42.58;17.45;;;;;;;5.72;100.00;101529.75;1823488;76;21151;-54
2021/01/04 11:14:14;;;;;;;39.10;15.00;;;;;;;5.69;100.00;101545.30;1824734;78;21100;-53
2021/01/04 11:16:48;;;;;;;38.53;15.13;;;;;;;5.67;100.00;101522.23;1817983;78;21190;-53
2021/01/04 11:19:33;;;;;;;35.25;15.30;;;;;;;5.63;100.00;101513.36;1822059;78;21572;-53
2021/01/04 11:22:26;;;;;;;36.13;15.60;;;;;;;5.62;100.00;101507.59;1826793;78;21159;-53
2021/01/04 11:24:55;;;;;;;33.92;14.10;;;;;;;5.62;100.00;101512.05;1824907;78;21127;-53
2021/01/04 11:27:24;;;;;;;40.20;16.00;;;;;;;5.62;100.00;101508.92;1764112;80;21157;-53
2021/01/04 11:29:51;;;;;;;37.25;15.35;;;;;;;5.61;100.00;101537.75;1764373;81;21195;-52
2021/01/04 11:32:20;;;;;;;34.67;14.87;;;;;;;5.58;100.00;101509.83;1777864;80;21130;-54
2021/01/04 11:34:51;;;;;;;43.23;16.02;;;;;;;5.59;100.00;101516.48;1763947;80;21133;-52
2021/01/04 11:37:20;;;;;;;35.25;14.53;;;;;;;5.59;100.00;101515.16;1753557;81;21114;-53
2021/01/04 11:39:50;;;;;;;36.33;15.80;;;;;;;5.60;100.00;101502.72;1771785;80;21610;-53
2021/01/04 11:42:18;;;;;;;32.88;15.45;;;;;;;5.58;100.00;101504.50;1765606;80;21661;-53
2021/01/04 11:44:46;;;;;;;36.23;15.65;;;;;;;5.58;100.00;101505.84;1765704;80;21149;-52
2021/01/04 11:47:15;;;;;;;30.32;14.83;;;;;;;5.58;100.00;101505.84;1763597;80;21583;-53
2021/01/04 11:49:43;;;;;;;34.08;15.00;;;;;;;5.59;100.00;101516.48;1772907;80;21134;-52
2021/01/04 11:52:11;;;;;;;36.60;14.93;;;;;;;5.58;100.00;101519.14;1764087;80;21109;-56
2021/01/04 11:54:42;;;;;;;35.00;15.32;;;;;;;5.54;100.00;101524.03;1760187;81;21277;-53
2021/01/04 11:57:11;;;;;;;36.75;14.78;;;;;;;5.54;100.00;101516.05;1793236;79;21094;-54
2021/01/04 11:59:41;;;;;;;33.78;15.80;;;;;;;5.54;100.00;101516.05;1798312;79;21073;-54
2021/01/04 12:02:09;;;;;;;36.40;14.80;;;;;;;5.53;100.00;101522.26;1798577;79;20924;-54
2021/01/04 12:04:37;;;;;;;34.20;15.48;;;;;;;5.51;100.00;101516.05;1798240;79;21112;-54
2021/01/04 12:07:04;;;;;;;35.13;16.00;;;;;;;5.48;100.00;101532.03;1798661;79;21218;-53
2021/01/04 12:09:32;;;;;;;34.92;16.07;;;;;;;5.43;100.00;101515.64;1798417;79;21267;-54
2021/01/04 12:12:00;;;;;;;34.20;14.33;;;;;;;5.42;100.00;101516.52;1747221;79;21150;-53